Time;durP1;ratioP1;P1;durP2;ratioP2;P2;SDS_P1;SDS_P2;PMS_P1;PMS_P2;Temp;Humidity;BMP_temperature;BMP_pressure;BME280_temperature;BME280_humidity;BME280_pressure;Samples;Min_cycle;Max_cycle;Signal;HPM_P1;HPM_P2
2022/06/03 00:32:17;;;;;;;6.50;3.88;;;;;;;;;;6182294;22;20195;-92
2022/06/03 00:35:28;;;;;;;6.97;3.90;;;;;;;;;;6214177;23;20150;-91
2022/06/03 00:38:44;;;;;;;8.10;4.07;;;;;;;;;;6215098;23;20210;-90
2022/06/03 00:41:59;;;;;;;8.55;4.30;;;;;;;;;;6215153;23;20160;-91
2022/06/03 00:45:14;;;;;;;7.35;4.03;;;;;;;;;;6215708;23;20163;-91
2022/06/03 00:48:32;;;;;;;6.78;4.20;;;;;;;;;;6215147;23;20167;-91
2022/06/03 00:51:52;;;;;;;11.70;4.82;;;;;;;;;;6214943;23;20151;-92
2022/06/03 00:55:12;;;;;;;7.22;4.88;;;;;;;;;;6215930;23;20168;-90
2022/06/03 00:58:31;;;;;;;6.82;4.32;;;;;;;;;;6215050;23;20673;-90
2022/06/03 01:01:39;;;;;;;9.65;4.50;;;;;;;;;;6215540;23;20159;-90
2022/06/03 01:04:54;;;;;;;6.38;4.30;;;;;;;;;;6214843;23;20202;-92
2022/06/03 01:08:04;;;;;;;9.07;4.55;;;;;;;;;;6212931;23;20279;-91
2022/06/03 01:11:15;;;;;;;8.05;4.70;;;;;;;;;;6213952;23;20229;-91
2022/06/03 01:14:27;;;;;;;12.93;5.10;;;;;;;;;;6213437;23;20164;-91
2022/06/03 03:09:48;;;;;;;14.55;7.53;;;;;;;;;;6176161;22;1549294;-91
2022/06/03 03:13:10;;;;;;;9.32;5.30;;;;;;;;;;6232441;23;20167;-91
2022/06/03 03:16:31;;;;;;;8.35;5.15;;;;;;;;;;6234085;23;20192;-91
2022/06/03 03:23:39;;;;;;;8.70;4.68;;;;;;;;;;6233920;23;20224;-90
2022/06/03 03:26:55;;;;;;;8.13;4.93;;;;;;;;;;6217788;23;20492;-92
2022/06/03 03:30:13;;;;;;;7.85;5.28;;;;;;;;;;6235063;23;20163;-92
2022/06/03 03:33:28;;;;;;;10.07;5.22;;;;;;;;;;6235548;23;20163;-91
2022/06/03 03:36:43;;;;;;;8.15;5.30;;;;;;;;;;6232379;23;20272;-92
2022/06/03 03:40:03;;;;;;;10.43;5.22;;;;;;;;;;6234009;23;20167;-93
2022/06/03 03:43:33;;;;;;;10.82;5.53;;;;;;;;;;6199462;23;20182;-91
2022/06/03 03:46:52;;;;;;;7.80;5.07;;;;;;;;;;6232199;23;20171;-91
2022/06/03 03:50:17;;;;;;;9.57;5.72;;;;;;;;;;6231542;23;20179;-91
2022/06/03 03:53:41;;;;;;;11.70;5.60;;;;;;;;;;6233165;23;20167;-91
2022/06/03 03:57:00;;;;;;;9.35;5.22;;;;;;;;;;6231820;23;20187;-91
2022/06/03 04:00:14;;;;;;;7.90;5.47;;;;;;;;;;6231313;23;20163;-92
2022/06/03 04:07:13;;;;;;;10.45;5.22;;;;;;;;;;6232161;23;20167;-90
2022/06/03 04:10:43;;;;;;;5.72;4.65;;;;;;;;;;6233456;23;20674;-90
2022/06/03 04:14:11;;;;;;;11.95;5.32;;;;;;;;;;6232815;23;20154;-89
2022/06/03 04:17:32;;;;;;;8.60;4.97;;;;;;;;;;6231576;23;20519;-90
2022/06/03 04:21:00;;;;;;;7.45;5.25;;;;;;;;;;6232407;23;20212;-90
2022/06/03 04:24:36;;;;;;;5.93;4.97;;;;;;;;;;6232328;23;20758;-91
2022/06/03 04:28:09;;;;;;;6.15;4.57;;;;;;;;;;6127413;23;20232;-92
2022/06/03 04:31:33;;;;;;;7.28;4.97;;;;;;;;;;6231369;23;20177;-91
2022/06/03 04:34:59;;;;;;;11.13;4.88;;;;;;;;;;6232573;23;20151;-91
2022/06/03 04:38:24;;;;;;;9.35;5.10;;;;;;;;;;6233204;23;20251;-92
2022/06/03 04:41:56;;;;;;;6.15;4.43;;;;;;;;;;6232884;23;20196;-90
2022/06/03 04:45:29;;;;;;;5.60;4.20;;;;;;;;;;6233412;23;20214;-90
2022/06/03 04:48:50;;;;;;;9.70;5.05;;;;;;;;;;6234463;23;20199;-90
2022/06/03 04:52:14;;;;;;;8.10;4.70;;;;;;;;;;6232458;23;20146;-90
2022/06/03 04:55:42;;;;;;;10.85;5.55;;;;;;;;;;6203661;23;20191;-91
2022/06/03 05:03:36;;;;;;;15.65;5.80;;;;;;;;;;6231352;23;20143;-91
2022/06/03 05:07:12;;;;;;;8.77;5.60;;;;;;;;;;6231972;23;20176;-91
2022/06/03 05:10:38;;;;;;;10.15;6.45;;;;;;;;;;6123223;23;20178;-91
2022/06/03 05:14:10;;;;;;;8.02;5.35;;;;;;;;;;6109412;23;20589;-91
2022/06/03 05:17:38;;;;;;;9.48;5.93;;;;;;;;;;6116978;23;20619;-90
2022/06/03 05:21:15;;;;;;;10.15;6.05;;;;;;;;;;6231550;23;20406;-92
2022/06/03 05:24:41;;;;;;;11.65;6.22;;;;;;;;;;6233490;23;20168;-88
2022/06/03 05:28:07;;;;;;;10.27;5.22;;;;;;;;;;6231029;23;20171;-91
2022/06/03 05:31:30;;;;;;;9.98;5.18;;;;;;;;;;6229281;23;20163;-89
2022/06/03 05:35:04;;;;;;;9.40;5.32;;;;;;;;;;6232762;23;20218;-92
2022/06/03 05:38:45;;;;;;;9.18;5.13;;;;;;;;;;6193042;23;20209;-90
2022/06/03 05:42:27;;;;;;;9.27;4.95;;;;;;;;;;6232199;23;20208;-90
2022/06/03 05:45:42;;;;;;;9.00;4.53;;;;;;;;;;6159634;23;20187;-91
2022/06/03 05:48:58;;;;;;;6.53;4.45;;;;;;;;;;6230929;23;20167;-91
2022/06/03 05:52:25;;;;;;;6.25;3.80;;;;;;;;;;6229860;23;20164;-91
2022/06/03 05:55:37;;;;;;;7.55;3.65;;;;;;;;;;6230353;23;20159;-92
2022/06/03 05:58:45;;;;;;;5.57;3.50;;;;;;;;;;6227954;23;20179;-92
2022/06/03 06:02:03;;;;;;;8.90;4.10;;;;;;;;;;6230360;23;20619;-91
2022/06/03 06:05:14;;;;;;;7.80;4.35;;;;;;;;;;6232251;23;20187;-91
2022/06/03 06:08:24;;;;;;;5.35;3.75;;;;;;;;;;6231709;23;20182;-91
2022/06/03 06:11:34;;;;;;;5.38;3.63;;;;;;;;;;6232422;23;20611;-92
2022/06/03 06:14:44;;;;;;;10.43;3.40;;;;;;;;;;6230117;23;20166;-90
2022/06/03 06:17:56;;;;;;;7.55;4.30;;;;;;;;;;6234768;23;20186;-89
2022/06/03 06:21:09;;;;;;;8.02;3.60;;;;;;;;;;6230023;23;20311;-89
2022/06/03 06:24:15;;;;;;;5.60;3.42;;;;;;;;;;6232513;23;20160;-91
2022/06/03 06:27:40;;;;;;;6.35;3.90;;;;;;;;;;6232123;23;20224;-92
2022/06/03 06:31:00;;;;;;;5.43;3.08;;;;;;;;;;6233417;23;20331;-92
